Bookmark and Share
Track history (hours):
 

Cruzeiro Do Canal

Last reported at 2014-Feb-21 12:34 UTC. Time now 2014-Apr-19 12:12 UTC.
Position N 38°32' W 028°35'.
Warning: this ship's position is 56 days out of date.

Length 32 m.

Type: Passenger vessel. MMSI: 204701250.

NotesDate/timePositionNaut miles runAvg speedWind from/ knotsBaromVisibWave heightAir tempDewpointWater temp
2014-Feb-21 12:34N 38°32' W 028°35'1 1.4
2014-Feb-21 11:33N 38°32' W 028°37'0 0.2
2014-Feb-21 10:34N 38°32' W 028°37'1 1.5
2014-Feb-21 09:34N 38°33' W 028°35'2 1.6
2014-Feb-21 08:33N 38°32' W 028°37'0 0.0
2014-Feb-20 19:32N 38°32' W 028°37'3 2.8
2014-Feb-20 18:33N 38°33' W 028°34'3 2.7
2014-Feb-20 17:33N 38°32' W 028°37'3 2.9
2014-Feb-20 16:33N 38°33' W 028°34'3 2.9
2014-Feb-20 15:33N 38°32' W 028°37'3 2.9
2014-Feb-20 14:33N 38°33' W 028°34'3 2.9
2014-Feb-20 13:33N 38°32' W 028°37'2 1.7
2014-Feb-20 12:34N 38°32' W 028°35'2 1.5
2014-Feb-20 11:33N 38°32' W 028°37'0 0.2
2014-Feb-20 10:33N 38°32' W 028°37'2 1.8
2014-Feb-20 09:34N 38°32' W 028°35'2 1.8
2014-Feb-20 08:33N 38°32' W 028°37'0 0.0
2014-Feb-19 19:33N 38°32' W 028°37'3 2.7
2014-Feb-19 18:33N 38°32' W 028°34'3 2.8
2014-Feb-19 17:33N 38°32' W 028°37'0 0.0
2014-Feb-19 16:33N 38°32' W 028°37'0 0.0
2014-Feb-19 15:33N 38°32' W 028°37'0 0.0
2014-Feb-19 14:33N 38°32' W 028°37'0 0.0
2014-Feb-19 13:33N 38°32' W 028°37'2 1.5
2014-Feb-19 12:34N 38°33' W 028°35'2 1.5
2014-Feb-19 11:33N 38°32' W 028°37'0 0.3
2014-Feb-19 10:33N 38°32' W 028°37'2 2.4
2014-Feb-19 09:34N 38°34' W 028°35'2 2.4
2014-Feb-19 08:33N 38°32' W 028°37'1 0.1
2014-Feb-18 20:33N 38°32' W 028°36'1 1.1
2014-Feb-18 19:33N 38°32' W 028°37'3 2.9
2014-Feb-18 18:33N 38°33' W 028°34'3 2.9
2014-Feb-18 17:33N 38°32' W 028°37'3 3.1
2014-Feb-18 16:33N 38°33' W 028°33'3 3.2
2014-Feb-18 15:36N 38°32' W 028°37'3 2.9
2014-Feb-18 14:33N 38°32' W 028°33'3 3.0
2014-Feb-18 13:33N 38°32' W 028°37'1 1.1
2014-Feb-18 12:34N 38°32' W 028°36'1 1.2
2014-Feb-18 11:33N 38°32' W 028°37'0 0.2
2014-Feb-18 10:33N 38°32' W 028°37'2 1.8
2014-Feb-18 09:34N 38°32' W 028°35'2 1.7
2014-Feb-18 08:33N 38°32' W 028°37'0 0.0
2014-Feb-17 19:28N 38°32' W 028°37'3 3.4
2014-Feb-17 18:33N 38°32' W 028°33'3 3.1
2014-Feb-17 17:33N 38°32' W 028°37'3 3.2
2014-Feb-17 16:34N 38°32' W 028°33'3 3.2
2014-Feb-17 15:33N 38°32' W 028°37'2 2.3
2014-Feb-17 14:33N 38°32' W 028°34'2 2.3
2014-Feb-17 13:34N 38°32' W 028°37'2 1.6
2014-Feb-17 12:34N 38°32' W 028°35'1 1.4
2014-Feb-17 11:33N 38°32' W 028°37'0 0.3
2014-Feb-17 10:33N 38°32' W 028°37'3 3.1
2014-Feb-17 09:33N 38°33' W 028°33'3 3.1
2014-Feb-17 08:33N 38°32' W 028°37'3 0.2
2014-Feb-16 18:33N 38°32' W 028°33'3 3.2
2014-Feb-16 17:33N 38°32' W 028°37'3 3.2
2014-Feb-16 16:33N 38°32' W 028°33'3 3.2
2014-Feb-16 15:33N 38°32' W 028°37'3 3.2
2014-Feb-16 14:33N 38°32' W 028°33'3 3.2
2014-Feb-16 13:33N 38°32' W 028°37'2 1.7
2014-Feb-16 12:33N 38°33' W 028°35'2 1.5
2014-Feb-16 11:33N 38°32' W 028°37'0 0.3
2014-Feb-16 10:33N 38°32' W 028°37'3 2.7
2014-Feb-16 09:34N 38°33' W 028°34'3 2.5
2014-Feb-16 08:33N 38°32' W 028°37'0 0.0
2014-Feb-15 19:33N 38°32' W 028°37'3 3.1
2014-Feb-15 18:33N 38°32' W 028°33'3 0.1
2014-Feb-13 17:33N 38°32' W 028°37'0 0.0
2014-Feb-13 16:33N 38°32' W 028°37'0 0.0
2014-Feb-13 15:34N 38°32' W 028°37'0 0.0
2014-Feb-13 14:33N 38°32' W 028°37'0 0.0
2014-Feb-13 13:33N 38°32' W 028°37'0 0.0
2014-Feb-13 12:33N 38°32' W 028°37'0 0.0
2014-Feb-13 11:34N 38°32' W 028°37'0 0.0
2014-Feb-13 10:33N 38°32' W 028°37'2 2.1
2014-Feb-13 09:33N 38°33' W 028°35'2 2.1
2014-Feb-13 08:34N 38°32' W 028°37'0 0.0
2014-Feb-12 19:33N 38°32' W 028°37'3 2.7
2014-Feb-12 18:33N 38°32' W 028°34'3 2.7
2014-Feb-12 17:33N 38°32' W 028°37'3 3.0
2014-Feb-12 16:33N 38°32' W 028°33'3 3.0
2014-Feb-12 15:33N 38°32' W 028°37'3 2.9
2014-Feb-12 14:33N 38°32' W 028°33'3 3.0
2014-Feb-12 13:33N 38°32' W 028°37'1 1.4
2014-Feb-12 12:33N 38°33' W 028°36'1 1.3
2014-Feb-12 11:33N 38°32' W 028°37'0 0.3
2014-Feb-12 10:33N 38°32' W 028°37'2 1.6
2014-Feb-12 09:33N 38°32' W 028°35'1 1.4
2014-Feb-12 08:33N 38°32' W 028°37'0 0.0
2014-Feb-11 19:33N 38°32' W 028°37'3 3.1
2014-Feb-11 18:33N 38°32' W 028°33'3 3.1
2014-Feb-11 17:33N 38°32' W 028°37'3 3.0
2014-Feb-11 16:33N 38°32' W 028°33'3 3.0
2014-Feb-11 15:33N 38°32' W 028°37'3 3.0
2014-Feb-11 14:33N 38°32' W 028°34'3 3.0
2014-Feb-11 13:33N 38°32' W 028°37'  

Dump ship's entire track history

sailing weather and tide predictions

Cruzeiro Do Canal — CSVG — position and weather